Time;durP1;ratioP1;P1;durP2;ratioP2;P2;SDS_P1;SDS_P2;PMS_P1;PMS_P2;Temp;Humidity;BMP_temperature;BMP_pressure;BME280_temperature;BME280_humidity;BME280_pressure;Samples;Min_cycle;Max_cycle;Signal;HPM_P1;HPM_P2
2023/06/11 00:00:25;;;;;;;9.50;6.25;;;;;;;18.95;100.00;99927.66;5586587;31;34039;-68
2023/06/11 00:03:33;;;;;;;8.05;6.32;;;;;;;18.89;100.00;99925.09;5586764;31;33686;-68
2023/06/11 00:06:39;;;;;;;8.27;6.43;;;;;;;18.85;100.00;99934.66;5587729;31;34509;-68
2023/06/11 00:09:49;;;;;;;9.43;7.03;;;;;;;18.81;100.00;99937.00;5587297;31;34571;-67
2023/06/11 00:12:56;;;;;;;9.63;7.20;;;;;;;18.76;100.00;99936.88;5587336;31;33593;-68
2023/06/11 00:16:05;;;;;;;10.90;7.37;;;;;;;18.76;100.00;99938.75;5587524;31;34352;-68
2023/06/11 00:19:13;;;;;;;11.38;7.43;;;;;;;18.73;100.00;99940.03;5587647;31;33811;-68
2023/06/11 00:22:26;;;;;;;9.52;7.50;;;;;;;18.71;100.00;99936.75;5587306;31;33909;-68
2023/06/11 00:25:32;;;;;;;13.95;8.07;;;;;;;18.68;100.00;99939.91;5586607;31;33631;-68
2023/06/11 00:28:39;;;;;;;10.15;7.03;;;;;;;18.65;100.00;99937.66;5587138;31;33784;-67
2023/06/11 00:31:45;;;;;;;10.55;7.65;;;;;;;18.59;100.00;99935.91;5587190;31;35163;-67
2023/06/11 00:34:53;;;;;;;11.32;7.68;;;;;;;18.55;100.00;99938.25;5587409;31;34106;-68
2023/06/11 00:37:58;;;;;;;10.38;8.13;;;;;;;18.53;100.00;99944.88;5586410;31;34625;-68
2023/06/11 00:41:06;;;;;;;16.00;7.82;;;;;;;18.50;100.00;99950.69;5581486;31;34676;-68
2023/06/11 00:44:21;;;;;;;14.63;8.20;;;;;;;18.44;100.00;99946.25;5587199;31;34264;-68
2023/06/11 00:47:27;;;;;;;12.07;7.65;;;;;;;18.41;100.00;99939.47;5587168;31;33780;-68
2023/06/11 00:50:44;;;;;;;9.38;8.20;;;;;;;18.39;100.00;99948.81;5586937;31;34506;-68
2023/06/11 00:53:52;;;;;;;12.20;7.85;;;;;;;18.35;100.00;99944.94;5587107;31;33596;-67
2023/06/11 00:56:58;;;;;;;10.45;8.00;;;;;;;18.32;100.00;99943.53;5586949;31;34676;-67
2023/06/11 01:00:12;;;;;;;10.35;7.85;;;;;;;18.30;100.00;99948.28;5587075;31;34789;-68
2023/06/11 01:03:22;;;;;;;11.57;7.93;;;;;;;18.32;100.00;99950.75;5586921;31;33948;-68
2023/06/11 01:06:33;;;;;;;12.98;7.87;;;;;;;18.30;100.00;99945.59;5587022;31;34326;-68
2023/06/11 01:09:41;;;;;;;12.37;7.80;;;;;;;18.33;100.00;99955.09;5586865;31;33854;-68
2023/06/11 01:12:48;;;;;;;13.52;8.10;;;;;;;18.33;100.00;99942.47;5585990;31;33969;-68
2023/06/11 01:16:15;;;;;;;9.32;7.68;;;;;;;18.35;100.00;99942.25;5586038;31;34694;-68
2023/06/11 01:19:52;;;;;;;8.75;7.35;;;;;;;18.36;100.00;99946.56;5586837;31;34658;-68
2023/06/11 01:23:20;;;;;;;8.88;7.65;;;;;;;18.33;100.00;99947.84;5586128;31;34520;-68
2023/06/11 01:26:55;;;;;;;13.13;7.90;;;;;;;18.32;100.00;99940.84;5586573;31;33867;-68
2023/06/11 01:30:04;;;;;;;12.73;8.32;;;;;;;18.29;100.00;99943.16;5585709;31;34349;-67
2023/06/11 01:33:14;;;;;;;8.15;7.15;;;;;;;18.28;100.00;99946.88;5586601;31;33889;-68
2023/06/11 01:36:24;;;;;;;11.93;7.65;;;;;;;18.27;100.00;99945.25;5585932;31;34105;-68
2023/06/11 01:39:31;;;;;;;8.88;7.30;;;;;;;18.26;100.00;99944.44;5585621;31;33584;-68
2023/06/11 01:42:38;;;;;;;9.88;6.85;;;;;;;18.27;100.00;99950.63;5586485;31;33877;-68
2023/06/11 01:45:46;;;;;;;11.00;7.00;;;;;;;18.26;100.00;99949.78;5586498;31;33669;-68
2023/06/11 01:48:53;;;;;;;11.88;7.22;;;;;;;18.28;100.00;99952.25;5585564;31;34506;-68
2023/06/11 01:52:03;;;;;;;9.10;7.25;;;;;;;18.25;100.00;99950.84;5585476;31;35539;-68
2023/06/11 01:55:09;;;;;;;9.43;7.15;;;;;;;18.23;100.00;99961.00;5586507;31;34364;-67
2023/06/11 01:58:18;;;;;;;9.00;6.95;;;;;;;18.22;100.00;99962.87;5586206;31;33727;-68
2023/06/11 02:01:28;;;;;;;9.70;7.20;;;;;;;18.21;100.00;99961.22;5586265;31;33693;-68
2023/06/11 02:04:37;;;;;;;11.38;7.22;;;;;;;18.22;100.00;99962.87;5586209;31;34448;-68
2023/06/11 02:07:46;;;;;;;9.45;6.82;;;;;;;18.22;100.00;99967.41;5586068;31;34685;-68
2023/06/11 02:10:55;;;;;;;13.62;7.03;;;;;;;18.22;100.00;99959.34;5585912;31;33828;-68
2023/06/11 02:14:01;;;;;;;7.62;6.53;;;;;;;18.23;100.00;99963.69;5585859;31;34618;-68
2023/06/11 02:17:09;;;;;;;9.30;6.87;;;;;;;18.22;100.00;99956.66;5586034;31;34369;-68
2023/06/11 02:20:18;;;;;;;9.18;6.53;;;;;;;18.20;100.00;99962.25;5585050;31;33928;-68
2023/06/11 02:23:24;;;;;;;8.10;6.45;;;;;;;18.19;100.00;99966.00;5585696;31;33973;-68
2023/06/11 02:26:31;;;;;;;10.40;6.53;;;;;;;18.19;100.00;99962.50;5585717;31;33835;-68
2023/06/11 02:29:39;;;;;;;14.70;6.43;;;;;;;18.17;100.00;99961.91;5585566;31;33513;-68
2023/06/11 02:32:46;;;;;;;12.27;6.68;;;;;;;18.23;100.00;99966.38;5584691;31;33806;-68
2023/06/11 02:35:51;;;;;;;7.68;6.60;;;;;;;18.20;100.00;99964.16;5587206;31;34527;-67
2023/06/11 02:38:59;;;;;;;8.57;6.53;;;;;;;18.16;100.00;99963.78;5588082;31;33977;-68
2023/06/11 02:42:05;;;;;;;10.38;6.62;;;;;;;18.15;100.00;99964.81;5588196;31;33985;-68
2023/06/11 02:45:13;;;;;;;13.95;6.82;;;;;;;18.15;100.00;99966.69;5588170;31;32163;-68
2023/06/11 02:48:19;;;;;;;11.43;6.32;;;;;;;18.16;100.00;99963.78;5588546;31;33885;-68
2023/06/11 02:51:25;;;;;;;9.70;6.50;;;;;;;18.15;100.00;99966.69;5587914;31;34655;-67
2023/06/11 02:54:31;;;;;;;12.18;6.40;;;;;;;18.19;100.00;99959.81;5588176;31;33821;-68
2023/06/11 02:57:37;;;;;;;12.88;6.37;;;;;;;18.13;100.00;99958.03;5588011;31;33545;-68
2023/06/11 03:00:43;;;;;;;7.70;6.03;;;;;;;18.13;100.00;99966.09;5583863;31;33813;-67
2023/06/11 03:03:50;;;;;;;8.80;6.50;;;;;;;18.09;100.00;99964.91;5576640;31;34162;-68
2023/06/11 03:06:59;;;;;;;10.18;6.72;;;;;;;18.08;100.00;99972.16;5588026;31;33868;-68
2023/06/11 03:10:06;;;;;;;12.75;6.18;;;;;;;18.06;100.00;99963.47;5587699;31;34157;-67
2023/06/11 03:13:15;;;;;;;12.27;6.87;;;;;;;18.06;100.00;99966.16;5587940;31;33808;-68
2023/06/11 03:16:22;;;;;;;10.32;6.32;;;;;;;18.04;100.00;99964.78;5587132;31;33698;-68
2023/06/11 03:19:31;;;;;;;11.25;6.45;;;;;;;18.05;100.00;99971.78;5587078;31;33933;-67
2023/06/11 03:22:39;;;;;;;9.77;6.22;;;;;;;18.05;100.00;99967.25;5587797;31;34592;-67
2023/06/11 03:25:47;;;;;;;16.27;6.37;;;;;;;18.05;100.00;99972.59;5586920;31;33764;-67
2023/06/11 03:28:56;;;;;;;10.80;5.87;;;;;;;18.08;100.00;99979.38;5587678;31;34511;-68
2023/06/11 03:32:04;;;;;;;11.57;6.03;;;;;;;18.06;100.00;99976.91;5587854;31;33740;-67
2023/06/11 03:35:14;;;;;;;11.00;6.25;;;;;;;18.07;100.00;99983.09;5587756;31;34541;-68
2023/06/11 03:38:22;;;;;;;8.63;6.37;;;;;;;18.11;100.00;99984.28;5587736;31;34532;-68
2023/06/11 03:41:33;;;;;;;9.10;6.00;;;;;;;18.10;100.00;99983.50;5587679;31;33933;-68
2023/06/11 03:44:41;;;;;;;9.88;6.28;;;;;;;18.09;100.00;99978.34;5587615;31;34359;-67
2023/06/11 03:47:52;;;;;;;10.20;5.70;;;;;;;18.16;100.00;99981.75;5587223;31;33928;-68
2023/06/11 03:50:59;;;;;;;11.50;5.90;;;;;;;18.17;100.00;99983.38;5587410;31;35211;-68
2023/06/11 03:54:06;;;;;;;7.57;5.70;;;;;;;18.16;100.00;99979.06;5586828;31;34312;-67
2023/06/11 03:57:14;;;;;;;12.18;6.53;;;;;;;18.21;100.00;99985.37;5587615;31;34524;-67
2023/06/11 04:00:21;;;;;;;7.43;5.55;;;;;;;18.24;100.00;99990.31;5587613;31;33918;-68
2023/06/11 04:03:29;;;;;;;9.85;5.57;;;;;;;18.21;100.00;99988.06;5587734;31;33680;-67
2023/06/11 04:06:39;;;;;;;9.98;5.50;;;;;;;18.26;100.00;99992.75;5587632;31;33684;-67
2023/06/11 04:09:47;;;;;;;9.05;5.55;;;;;;;18.26;100.00;99992.75;5587507;31;35159;-67
2023/06/11 04:12:54;;;;;;;7.28;5.53;;;;;;;18.25;100.00;99991.94;5587259;31;34105;-68
2023/06/11 04:16:02;;;;;;;6.50;5.47;;;;;;;18.27;100.00;99991.72;5587742;31;34623;-68
2023/06/11 04:19:10;;;;;;;7.53;5.32;;;;;;;18.33;100.00;99992.69;5587360;31;34871;-68
2023/06/11 04:22:18;;;;;;;7.35;5.07;;;;;;;18.35;100.00;99991.38;5587453;31;33897;-68
2023/06/11 04:25:24;;;;;;;7.03;4.87;;;;;;;18.37;100.00;99992.00;5587412;31;33707;-68
2023/06/11 04:28:35;;;;;;;7.30;5.40;;;;;;;18.37;100.00;99989.31;5587416;31;34010;-67
2023/06/11 04:31:41;;;;;;;7.35;5.05;;;;;;;18.55;100.00;99993.84;5587604;31;34813;-68
2023/06/11 04:34:49;;;;;;;8.18;4.93;;;;;;;18.52;100.00;99988.91;5587429;31;33793;-68
2023/06/11 04:37:56;;;;;;;9.18;4.93;;;;;;;18.54;100.00;99994.91;5586629;31;33799;-68
2023/06/11 04:41:05;;;;;;;9.00;5.05;;;;;;;18.60;100.00;99996.66;5587247;31;33916;-68
2023/06/11 04:44:10;;;;;;;9.30;5.00;;;;;;;18.58;100.00;99999.59;5587034;31;34587;-68
2023/06/11 04:47:22;;;;;;;6.80;4.50;;;;;;;18.69;100.00;100000.66;5586353;31;34064;-68
2023/06/11 04:50:31;;;;;;;9.07;5.10;;;;;;;18.69;100.00;99995.28;5586160;31;33542;-67
2023/06/11 04:53:40;;;;;;;7.50;5.12;;;;;;;18.84;100.00;99997.53;5586279;31;34866;-68
2023/06/11 04:56:49;;;;;;;7.97;4.93;;;;;;;18.86;100.00;100007.00;5586330;31;34771;-67
2023/06/11 04:59:56;;;;;;;7.82;4.85;;;;;;;18.78;100.00;99999.28;5586762;31;33896;-67
2023/06/11 05:03:06;;;;;;;9.07;4.80;;;;;;;18.89;100.00;99998.47;5586957;31;35073;-68
2023/06/11 05:06:14;;;;;;;5.07;4.55;;;;;;;19.01;100.00;100007.41;5587065;31;35301;-68
2023/06/11 05:09:22;;;;;;;9.50;4.60;;;;;;;18.98;100.00;100004.31;5587160;31;34248;-68
2023/06/11 05:12:30;;;;;;;7.37;4.68;;;;;;;19.05;100.00;100005.06;5586876;31;32185;-68
2023/06/11 05:15:40;;;;;;;10.68;4.87;;;;;;;19.06;100.00;100001.31;5586843;31;34448;-68
2023/06/11 05:18:47;;;;;;;7.53;4.70;;;;;;;19.07;100.00;100013.72;5586868;31;33823;-68
2023/06/11 05:21:54;;;;;;;5.37;4.25;;;;;;;19.23;100.00;100009.50;5586788;31;33615;-69
2023/06/11 05:25:02;;;;;;;6.45;4.70;;;;;;;19.17;100.00;100010.47;5586818;31;34454;-68
2023/06/11 05:28:10;;;;;;;9.93;4.50;;;;;;;19.19;100.00;100009.16;5586586;31;34625;-68
2023/06/11 05:31:21;;;;;;;5.72;4.60;;;;;;;19.34;100.00;100014.91;5586709;31;33558;-68
2023/06/11 05:34:30;;;;;;;6.20;4.37;;;;;;;19.16;100.00;100006.94;5586625;31;34586;-68
2023/06/11 05:37:42;;;;;;;9.40;4.57;;;;;;;19.29;100.00;100011.28;5586730;31;34615;-69
2023/06/11 05:40:48;;;;;;;9.30;4.60;;;;;;;19.24;100.00;100020.03;5585400;31;33635;-68
2023/06/11 05:43:55;;;;;;;7.18;4.37;;;;;;;19.36;100.00;100017.38;5586717;31;33561;-68
2023/06/11 05:47:04;;;;;;;6.03;4.40;;;;;;;19.63;100.00;100018.53;5586319;31;34444;-69
2023/06/11 05:50:13;;;;;;;6.85;4.40;;;;;;;19.69;100.00;100014.09;5586292;31;33436;-67
2023/06/11 05:53:22;;;;;;;7.03;4.35;;;;;;;19.85;100.00;100013.34;5585585;31;35283;-68
2023/06/11 05:56:30;;;;;;;9.45;4.45;;;;;;;19.99;100.00;100017.44;5586374;31;33678;-69
2023/06/11 05:59:37;;;;;;;5.62;4.45;;;;;;;20.11;100.00;100018.22;5585502;31;33637;-69
2023/06/11 06:02:45;;;;;;;7.18;4.20;;;;;;;20.31;100.00;100017.84;5585421;31;34541;-69
2023/06/11 06:05:55;;;;;;;7.72;4.07;;;;;;;20.48;100.00;100020.59;5585978;31;33926;-69
2023/06/11 06:09:04;;;;;;;5.10;3.95;;;;;;;20.50;100.00;100016.59;5586757;31;33886;-69
2023/06/11 06:12:11;;;;;;;6.95;4.30;;;;;;;20.46;100.00;100017.31;5588400;31;34846;-68
2023/06/11 06:15:19;;;;;;;7.90;4.00;;;;;;;20.37;100.00;100036.56;5588429;31;34581;-69
2023/06/11 06:18:27;;;;;;;4.72;3.75;;;;;;;20.45;100.00;100029.16;5588307;31;34631;-69
2023/06/11 06:21:36;;;;;;;5.97;3.78;;;;;;;20.58;100.00;100039.63;5588316;31;34802;-69
2023/06/11 06:24:44;;;;;;;6.05;4.00;;;;;;;20.92;100.00;100033.25;5588229;31;33954;-69
2023/06/11 06:27:52;;;;;;;6.80;3.80;;;;;;;21.11;100.00;100040.03;5588180;31;34590;-70
2023/06/11 06:31:02;;;;;;;4.22;3.65;;;;;;;20.94;100.00;100035.69;5586522;31;34516;-69
2023/06/11 06:34:09;;;;;;;6.57;3.58;;;;;;;20.81;100.00;100043.06;5568249;32;34265;-68
2023/06/11 06:37:19;;;;;;;5.93;4.07;;;;;;;20.74;100.00;100045.06;5568611;32;34327;-68
2023/06/11 06:40:26;;;;;;;11.50;3.90;;;;;;;21.03;100.00;100047.72;5568526;32;34520;-68
2023/06/11 06:43:36;;;;;;;9.45;3.87;;;;;;;20.64;100.00;100041.38;5568444;32;34174;-70
2023/06/11 06:46:47;;;;;;;9.18;3.97;;;;;;;20.75;100.00;100054.81;5568367;32;33852;-68
2023/06/11 06:49:54;;;;;;;5.32;4.00;;;;;;;20.74;100.00;100042.38;5568534;32;34078;-69
2023/06/11 06:53:02;;;;;;;5.53;3.45;;;;;;;20.80;100.00;100051.38;5567525;32;34304;-69
2023/06/11 06:56:11;;;;;;;6.68;3.60;;;;;;;20.92;100.00;100054.00;5568539;32;33988;-69
2023/06/11 06:59:18;;;;;;;4.62;3.58;;;;;;;20.80;100.00;100054.06;5585379;31;34635;-70
2023/06/11 07:02:26;;;;;;;5.70;4.20;;;;;;;21.17;100.00;100055.28;5587936;31;34242;-69
2023/06/11 07:05:37;;;;;;;8.77;3.83;;;;;;;20.99;100.00;100050.09;5587122;31;33685;-69
2023/06/11 07:08:46;;;;;;;4.32;3.72;;;;;;;21.16;100.00;100058.22;5587845;31;33447;-69
2023/06/11 07:11:52;;;;;;;5.22;3.90;;;;;;;21.57;100.00;100051.59;5587682;31;34555;-69
2023/06/11 07:14:59;;;;;;;4.53;3.50;;;;;;;21.75;100.00;100055.88;5587551;31;34722;-69
2023/06/11 07:18:05;;;;;;;6.93;3.60;;;;;;;21.97;100.00;100049.50;5582281;31;33872;-69
2023/06/11 07:21:14;;;;;;;6.12;3.83;;;;;;;22.36;100.00;100052.12;5572468;31;34676;-70
2023/06/11 07:24:23;;;;;;;4.28;3.20;;;;;;;22.16;100.00;100051.88;5586316;31;33726;-69
2023/06/11 07:27:30;;;;;;;4.40;3.67;;;;;;;22.35;100.00;100053.19;5584239;31;34258;-68
2023/06/11 07:30:40;;;;;;;5.05;3.60;;;;;;;22.53;100.00;100058.25;5587595;31;33782;-69
2023/06/11 07:33:47;;;;;;;5.60;3.87;;;;;;;22.83;98.10;100052.41;5586893;31;34835;-69
2023/06/11 07:36:52;;;;;;;7.20;3.37;;;;;;;22.32;100.00;100049.09;5587375;31;33977;-69
2023/06/11 07:40:04;;;;;;;14.40;2.87;;;;;;;23.11;99.12;100052.09;5587366;31;34490;-68
2023/06/11 07:43:12;;;;;;;6.62;3.30;;;;;;;24.20;88.11;100048.81;5585352;31;34564;-70
2023/06/11 07:46:21;;;;;;;5.85;3.15;;;;;;;23.91;87.20;100051.09;5567757;32;33710;-68
2023/06/11 07:49:29;;;;;;;7.70;2.95;;;;;;;24.09;80.63;100045.19;5567882;32;33891;-70
2023/06/11 07:52:36;;;;;;;7.62;3.15;;;;;;;24.40;81.16;100051.56;5584540;31;35445;-70
2023/06/11 07:55:45;;;;;;;5.47;3.17;;;;;;;24.82;77.54;100048.69;5587466;31;33937;-69
2023/06/11 07:58:51;;;;;;;8.88;3.50;;;;;;;24.71;76.82;100059.78;5586879;31;34502;-70
2023/06/11 08:01:57;;;;;;;4.55;3.37;;;;;;;24.25;78.31;100055.03;5586766;31;34830;-70
2023/06/11 08:05:05;;;;;;;4.65;3.15;;;;;;;23.99;82.45;100061.41;5587028;31;33938;-68
2023/06/11 08:08:12;;;;;;;4.18;3.28;;;;;;;23.39;84.28;100061.78;5586919;31;33625;-69
2023/06/11 08:11:22;;;;;;;5.85;3.50;;;;;;;24.16;80.21;100067.47;5586358;31;34034;-70
2023/06/11 08:14:28;;;;;;;3.35;2.90;;;;;;;23.67;83.21;100064.19;5585962;31;34516;-70
2023/06/11 08:17:35;;;;;;;4.68;3.10;;;;;;;23.50;84.39;100066.25;5573212;31;34866;-70
2023/06/11 08:20:41;;;;;;;9.32;3.67;;;;;;;23.78;86.61;100067.78;5566735;32;33920;-70
2023/06/11 08:23:48;;;;;;;4.93;3.22;;;;;;;24.48;81.04;100067.34;5566937;32;34121;-70
2023/06/11 08:26:55;;;;;;;5.12;3.17;;;;;;;24.75;76.40;100074.44;5567266;32;33746;-69
2023/06/11 08:30:02;;;;;;;8.10;3.08;;;;;;;24.27;79.34;100067.53;5566933;32;34595;-70
2023/06/11 08:33:09;;;;;;;5.47;3.25;;;;;;;24.00;78.73;100065.75;5565476;32;34804;-70
2023/06/11 08:36:16;;;;;;;6.87;3.30;;;;;;;23.71;79.90;100078.03;5566603;32;34073;-69
2023/06/11 08:39:23;;;;;;;7.30;3.60;;;;;;;23.29;82.70;100073.38;5566899;32;33816;-71
2023/06/11 08:42:30;;;;;;;4.65;3.30;;;;;;;24.09;81.53;100069.59;5566486;32;34040;-69
2023/06/11 08:45:37;;;;;;;4.18;3.17;;;;;;;24.30;79.16;100075.97;5563125;32;34069;-70
2023/06/11 08:48:45;;;;;;;4.47;3.20;;;;;;;23.89;79.21;100074.91;5566251;32;34013;-70
2023/06/11 08:51:50;;;;;;;4.68;3.20;;;;;;;24.59;77.61;100079.03;5565968;32;33573;-69
2023/06/11 08:54:56;;;;;;;5.25;3.30;;;;;;;23.89;78.45;100071.37;5566348;32;33839;-70
2023/06/11 08:58:04;;;;;;;5.60;3.12;;;;;;;23.90;80.16;100073.81;5565956;32;34068;-70
2023/06/11 09:01:11;;;;;;;4.60;3.28;;;;;;;23.61;80.24;100073.38;5565316;32;34762;-70
2023/06/11 09:04:20;;;;;;;4.63;3.37;;;;;;;23.90;81.05;100086.56;5566534;32;33773;-71
2023/06/11 09:07:27;;;;;;;4.97;3.30;;;;;;;23.63;83.10;100082.03;5566769;32;33794;-71
2023/06/11 09:10:50;;;;;;;3.20;2.90;;;;;;;24.02;80.41;100068.19;5577590;31;34059;-70
2023/06/11 09:13:56;;;;;;;7.10;3.20;;;;;;;23.97;80.01;100068.16;5586134;31;33797;-70
2023/06/11 09:17:02;;;;;;;5.65;3.22;;;;;;;23.66;81.77;100069.88;5585904;31;34696;-70
2023/06/11 09:20:12;;;;;;;6.55;3.25;;;;;;;24.11;80.49;100080.97;5586293;31;33882;-70
2023/06/11 09:23:25;;;;;;;5.18;2.95;;;;;;;24.61;75.80;100068.72;5586366;31;34035;-70
2023/06/11 09:26:37;;;;;;;6.53;3.30;;;;;;;24.38;75.61;100067.31;5584533;31;33767;-70
2023/06/11 09:29:47;;;;;;;6.40;3.83;;;;;;;24.73;75.07;100072.03;5586066;31;34728;-68
2023/06/11 09:32:54;;;;;;;4.28;2.80;;;;;;;24.38;76.23;100082.75;5585897;31;33865;-69
2023/06/11 09:36:00;;;;;;;6.60;3.00;;;;;;;24.43;75.59;100078.16;5586043;31;34548;-70
2023/06/11 09:39:06;;;;;;;3.78;2.87;;;;;;;24.49;77.97;100081.72;5584778;31;33811;-70
2023/06/11 09:42:24;;;;;;;3.92;3.40;;;;;;;24.47;74.24;100081.16;5585284;31;33597;-67
2023/06/11 09:45:31;;;;;;;6.12;3.25;;;;;;;24.19;75.51;100088.66;5585606;31;34497;-68
2023/06/11 09:48:39;;;;;;;6.72;2.95;;;;;;;24.34;74.76;100089.78;5585704;31;33881;-69
2023/06/11 09:51:47;;;;;;;4.50;2.92;;;;;;;24.58;74.58;100078.22;5585353;31;33953;-69
2023/06/11 09:54:52;;;;;;;4.78;2.62;;;;;;;25.59;68.93;100096.56;5585935;31;34538;-70
2023/06/11 09:57:59;;;;;;;4.28;2.85;;;;;;;24.99;71.17;100087.28;5585715;31;34025;-68
2023/06/11 10:01:05;;;;;;;3.65;2.67;;;;;;;24.97;72.53;100091.34;5586161;31;33887;-70
2023/06/11 10:04:12;;;;;;;4.20;2.60;;;;;;;26.51;66.83;100089.78;5585744;31;34016;-67
2023/06/11 10:07:22;;;;;;;3.77;2.30;;;;;;;25.67;68.58;100082.41;5585729;31;33797;-70
2023/06/11 10:10:36;;;;;;;4.00;2.50;;;;;;;25.70;68.18;100086.50;5585273;31;33870;-69
2023/06/11 10:13:54;;;;;;;5.18;2.72;;;;;;;26.52;63.41;100077.00;5585467;31;34532;-69
2023/06/11 10:17:02;;;;;;;5.00;3.15;;;;;;;24.67;71.20;100087.47;5585442;31;34193;-69
2023/06/11 10:20:35;;;;;;;6.80;2.95;;;;;;;24.14;76.14;100085.88;5585468;31;34063;-70
2023/06/11 10:23:42;;;;;;;7.60;3.15;;;;;;;24.65;72.40;100086.09;5585035;31;33861;-70
2023/06/11 10:27:07;;;;;;;3.28;2.60;;;;;;;27.29;63.99;100078.97;5585242;31;34777;-70
2023/06/11 10:30:24;;;;;;;4.05;2.80;;;;;;;26.84;59.73;100082.81;5584980;31;34001;-69
2023/06/11 10:33:45;;;;;;;3.45;2.28;;;;;;;26.80;60.54;100073.56;5584299;31;34928;-70
2023/06/11 10:36:52;;;;;;;3.12;2.80;;;;;;;27.28;58.76;100076.53;5584213;31;33910;-71
2023/06/11 10:39:58;;;;;;;6.22;3.20;;;;;;;27.27;60.04;100061.28;5584577;31;33883;-69
2023/06/11 10:43:22;;;;;;;3.25;2.60;;;;;;;26.51;61.91;100067.22;5585154;31;34160;-71
2023/06/11 10:46:30;;;;;;;5.00;2.72;;;;;;;27.77;59.96;100074.47;5585219;31;33847;-71
2023/06/11 10:49:38;;;;;;;6.00;2.78;;;;;;;28.09;58.20;100076.56;5584726;31;33769;-69
2023/06/11 10:52:56;;;;;;;;;;;;;;;25.07;69.04;100073.19;5585388;31;33669;-71
2023/06/11 10:56:04;;;;;;;7.32;2.90;;;;;;;24.80;72.27;100066.31;5585920;31;34494;-71
2023/06/11 10:59:10;;;;;;;5.07;3.72;;;;;;;24.06;77.38;100067.37;5587465;31;34207;-69
2023/06/11 11:02:22;;;;;;;3.62;2.95;;;;;;;23.58;81.38;100068.47;5587663;31;35447;-70
2023/06/11 11:05:28;;;;;;;4.35;2.92;;;;;;;23.74;82.56;100066.69;5586915;31;34246;-71
2023/06/11 11:08:38;;;;;;;6.03;2.90;;;;;;;24.36;79.68;100069.44;5587820;31;33802;-70
2023/06/11 11:11:43;;;;;;;9.02;3.40;;;;;;;24.15;80.15;100067.72;5586847;31;34705;-71
2023/06/11 11:14:51;;;;;;;5.45;3.08;;;;;;;24.67;77.91;100067.66;5587374;31;34072;-69
2023/06/11 11:18:02;;;;;;;3.53;2.80;;;;;;;24.95;75.82;100063.66;5587760;31;33824;-69
2023/06/11 11:21:08;;;;;;;4.25;3.00;;;;;;;25.24;72.96;100056.63;5587591;31;33561;-71
2023/06/11 11:24:12;;;;;;;4.53;2.90;;;;;;;25.08;73.25;100057.69;5586359;31;34342;-70
2023/06/11 11:27:23;;;;;;;5.22;3.20;;;;;;;25.45;71.78;100066.41;5587593;31;33957;-71
2023/06/11 11:30:29;;;;;;;;;;;;;;;25.60;70.66;100065.59;5585107;31;33601;-72
2023/06/11 11:33:36;;;;;;;3.85;2.80;;;;;;;25.03;73.24;100054.97;5573156;31;34969;-71
2023/06/11 11:36:45;;;;;;;3.65;2.70;;;;;;;25.56;72.96;100058.28;5586624;31;34023;-72
2023/06/11 11:39:52;;;;;;;9.13;3.15;;;;;;;25.46;71.91;100059.84;5586769;31;33735;-72
2023/06/11 11:43:02;;;;;;;5.10;2.60;;;;;;;25.66;73.19;100061.75;5585274;31;32528;-70
2023/06/11 11:46:16;;;;;;;4.07;2.92;;;;;;;25.12;73.41;100053.38;5568089;31;33826;-71
2023/06/11 11:49:32;;;;;;;3.58;2.97;;;;;;;24.99;75.75;100048.47;5580308;31;33719;-71
2023/06/11 11:52:38;;;;;;;3.33;2.65;;;;;;;24.17;80.17;100046.59;5570622;31;33896;-71
2023/06/11 11:55:46;;;;;;;3.92;2.72;;;;;;;23.76;82.15;100043.69;5567773;32;33974;-71
2023/06/11 11:59:20;;;;;;;6.18;3.20;;;;;;;23.80;83.42;100043.97;5574339;31;33610;-69
2023/06/11 12:02:29;;;;;;;3.05;2.60;;;;;;;24.00;83.82;100040.56;5578907;31;34189;-69
2023/06/11 12:05:38;;;;;;;5.03;2.90;;;;;;;24.58;79.34;100040.25;5577319;31;35314;-70
2023/06/11 12:08:45;;;;;;;3.03;2.40;;;;;;;25.02;77.28;100037.09;5575073;31;34538;-71
2023/06/11 12:11:51;;;;;;;10.10;3.10;;;;;;;25.18;76.50;100040.59;5579575;31;33711;-70
2023/06/11 12:15:09;;;;;;;3.05;2.60;;;;;;;25.67;74.11;100040.84;5572490;31;34737;-71
2023/06/11 12:18:16;;;;;;;3.83;2.80;;;;;;;25.82;72.06;100027.22;5583648;31;34020;-72
2023/06/11 12:21:21;;;;;;;4.40;2.65;;;;;;;26.02;68.36;100031.78;5585703;31;33305;-70
2023/06/11 12:24:29;;;;;;;2.80;2.50;;;;;;;25.66;66.96;100036.53;5586287;31;33652;-69
2023/06/11 12:27:37;;;;;;;6.57;2.70;;;;;;;24.65;70.72;100027.22;5586154;31;34063;-71
2023/06/11 12:30:43;;;;;;;3.25;2.50;;;;;;;25.81;68.19;100029.12;5586079;31;34242;-70
2023/06/11 12:33:50;;;;;;;4.10;2.37;;;;;;;24.85;71.29;100022.91;5586865;31;33587;-69
2023/06/11 12:36:56;;;;;;;2.35;2.15;;;;;;;24.86;72.87;100027.25;5586367;31;34049;-70
2023/06/11 12:40:04;;;;;;;10.55;2.25;;;;;;;24.06;80.35;100023.25;5585749;31;34451;-69
2023/06/11 12:43:11;;;;;;;5.23;2.30;;;;;;;24.21;81.22;100029.53;5586683;31;34813;-67
2023/06/11 12:46:20;;;;;;;4.82;2.37;;;;;;;23.75;83.10;100033.91;5586714;31;34312;-69
2023/06/11 12:49:28;;;;;;;5.37;2.50;;;;;;;23.58;85.67;100027.03;5585894;31;34920;-67
2023/06/11 12:52:35;;;;;;;3.90;2.30;;;;;;;23.37;87.61;100023.34;5586508;31;34444;-69
2023/06/11 12:55:43;;;;;;;3.50;1.90;;;;;;;23.24;86.37;100023.78;5586931;31;34060;-72
2023/06/11 12:58:52;;;;;;;3.62;2.25;;;;;;;23.43;87.93;100022.28;5567876;31;34416;-68
2023/06/11 13:02:00;;;;;;;2.72;2.17;;;;;;;23.45;84.61;100027.50;5567242;32;34592;-68
2023/06/11 13:05:10;;;;;;;2.47;2.10;;;;;;;23.49;83.15;100023.19;5567036;32;32714;-69
2023/06/11 13:08:19;;;;;;;2.20;1.92;;;;;;;23.62;81.09;100028.16;5566851;32;33754;-69
2023/06/11 13:11:26;;;;;;;2.70;2.03;;;;;;;24.03;76.93;100030.00;5566062;32;34517;-69
2023/06/11 13:14:31;;;;;;;2.12;1.70;;;;;;;24.27;72.70;100024.97;5566023;32;33917;-68
2023/06/11 13:17:35;;;;;;;2.00;1.55;;;;;;;24.48;72.64;100023.94;5571456;31;34548;-71
2023/06/11 13:20:41;;;;;;;6.00;1.90;;;;;;;24.24;75.98;100023.63;5577061;31;32595;-70
2023/06/11 13:23:49;;;;;;;2.97;1.65;;;;;;;23.94;78.80;100022.63;5585865;31;33830;-67
2023/06/11 13:26:57;;;;;;;2.80;1.77;;;;;;;23.49;76.96;100026.72;5582630;31;34408;-70
2023/06/11 13:30:09;;;;;;;2.72;1.48;;;;;;;23.69;76.04;100026.84;5584998;31;33771;-71
2023/06/11 13:33:16;;;;;;;3.83;1.40;;;;;;;24.00;75.06;100011.56;5575486;31;34711;-70
2023/06/11 13:36:23;;;;;;;2.33;1.50;;;;;;;25.36;70.38;100024.59;5581751;31;33986;-71
2023/06/11 13:39:30;;;;;;;2.70;1.55;;;;;;;28.98;56.28;100020.25;5585022;31;34099;-70
2023/06/11 13:42:37;;;;;;;2.90;1.20;;;;;;;27.98;57.39;100025.97;5574156;31;33865;-69
2023/06/11 13:45:46;;;;;;;2.28;1.30;;;;;;;28.15;54.47;100020.88;5580920;31;33980;-71
2023/06/11 13:48:53;;;;;;;3.53;1.37;;;;;;;32.17;45.60;100024.88;5575950;31;34530;-72
2023/06/11 13:52:00;;;;;;;2.37;1.33;;;;;;;31.63;45.58;100014.31;5580882;31;33741;-69
2023/06/11 13:55:07;;;;;;;6.22;1.33;;;;;;;28.65;51.61;100019.38;5579474;31;33697;-68
2023/06/11 13:58:14;;;;;;;4.05;1.35;;;;;;;25.14;60.49;100023.22;5582122;31;33723;-69
2023/06/11 14:01:21;;;;;;;2.47;1.40;;;;;;;24.21;64.19;100013.28;5578182;31;33932;-70
2023/06/11 14:04:27;;;;;;;7.28;1.83;;;;;;;24.01;67.79;100018.59;5571468;31;33728;-70
2023/06/11 14:07:35;;;;;;;6.12;1.45;;;;;;;25.53;63.49;100018.84;5576260;31;34191;-71
2023/06/11 14:10:41;;;;;;;3.92;1.45;;;;;;;28.20;54.69;100020.81;5569822;31;34641;-69
2023/06/11 14:13:47;;;;;;;2.55;1.10;;;;;;;27.07;57.03;100015.97;5560730;31;34600;-70
2023/06/11 14:16:52;;;;;;;2.28;1.60;;;;;;;24.96;64.22;100025.41;5574163;31;34826;-69
2023/06/11 14:20:00;;;;;;;3.50;1.70;;;;;;;24.26;67.82;100023.31;5578548;31;33732;-68
2023/06/11 14:23:07;;;;;;;2.00;1.30;;;;;;;24.38;69.80;100034.75;5577599;31;33699;-68
2023/06/11 14:26:14;;;;;;;3.22;1.30;;;;;;;24.19;69.01;100015.47;5570554;31;34378;-69
2023/06/11 14:29:19;;;;;;;2.35;1.30;;;;;;;24.92;66.89;100028.94;5577730;31;33202;-70
2023/06/11 14:32:28;;;;;;;1.98;1.20;;;;;;;25.39;61.57;100032.19;5575572;31;34509;-71